Time;durP1;ratioP1;P1;durP2;ratioP2;P2;SDS_P1;SDS_P2;PMS_P1;PMS_P2;Temp;Humidity;BMP_temperature;BMP_pressure;BME280_temperature;BME280_humidity;BME280_pressure;Samples;Min_cycle;Max_cycle;Signal;HPM_P1;HPM_P2
2022/09/14 00:00:58;;;;;;;3.43;1.30;;;;;;;;;;4955995;28;20237;-74
2022/09/14 00:03:23;;;;;;;1.67;1.20;;;;;;;;;;4955997;28;20229;-73
2022/09/14 00:05:49;;;;;;;2.17;1.03;;;;;;;;;;4956812;28;20214;-72
2022/09/14 00:08:17;;;;;;;1.93;1.23;;;;;;;;;;4946065;28;20241;-72
2022/09/14 00:10:43;;;;;;;5.13;1.20;;;;;;;;;;4940969;28;20697;-72
2022/09/14 00:13:09;;;;;;;3.10;1.57;;;;;;;;;;4938869;28;20230;-72
2022/09/14 00:15:38;;;;;;;2.63;1.40;;;;;;;;;;4956946;28;20222;-72
2022/09/14 00:18:07;;;;;;;3.90;1.90;;;;;;;;;;4955146;28;20230;-72
2022/09/14 00:20:35;;;;;;;2.80;1.60;;;;;;;;;;4924346;28;20231;-72
2022/09/14 00:23:04;;;;;;;1.90;1.13;;;;;;;;;;4954918;28;20237;-72
2022/09/14 00:25:29;;;;;;;3.00;1.57;;;;;;;;;;4926357;28;20302;-73
2022/09/14 00:27:57;;;;;;;3.97;1.40;;;;;;;;;;4933248;28;20265;-72
2022/09/14 00:30:25;;;;;;;2.93;1.33;;;;;;;;;;4936180;28;20309;-72
2022/09/14 00:32:53;;;;;;;1.83;1.10;;;;;;;;;;4952416;28;20265;-72
2022/09/14 00:35:22;;;;;;;2.03;1.20;;;;;;;;;;4938105;28;20233;-72
2022/09/14 00:37:49;;;;;;;2.60;1.00;;;;;;;;;;4954264;28;20378;-72
2022/09/14 00:40:14;;;;;;;2.67;1.07;;;;;;;;;;4940148;28;20245;-73
2022/09/14 00:42:45;;;;;;;2.50;1.23;;;;;;;;;;4952577;28;20223;-72
2022/09/14 00:45:20;;;;;;;2.97;1.30;;;;;;;;;;4957442;28;20264;-71
2022/09/14 00:47:51;;;;;;;2.73;1.17;;;;;;;;;;4932764;28;20262;-73
2022/09/14 00:50:19;;;;;;;2.07;1.20;;;;;;;;;;4930891;28;20266;-72
2022/09/14 00:52:47;;;;;;;1.90;1.27;;;;;;;;;;4927904;28;20233;-72
2022/09/14 00:55:19;;;;;;;3.87;1.53;;;;;;;;;;4924326;28;20242;-71
2022/09/14 00:57:51;;;;;;;1.67;1.27;;;;;;;;;;4956156;28;20230;-72
2022/09/14 01:00:20;;;;;;;8.23;1.40;;;;;;;;;;4938216;28;20232;-72
2022/09/14 01:02:45;;;;;;;2.23;1.23;;;;;;;;;;4936631;28;20242;-72
2022/09/14 01:05:11;;;;;;;3.40;1.47;;;;;;;;;;4955541;28;20222;-72
2022/09/14 01:07:59;;;;;;;2.20;1.17;;;;;;;;;;4922354;28;20233;-72
2022/09/14 01:10:43;;;;;;;2.40;1.37;;;;;;;;;;4939994;28;20305;-72
2022/09/14 01:13:46;;;;;;;3.93;1.50;;;;;;;;;;4945042;28;20254;-72
2022/09/14 01:16:14;;;;;;;2.13;1.57;;;;;;;;;;4957480;28;20338;-72
2022/09/14 01:18:49;;;;;;;5.30;1.90;;;;;;;;;;4957210;28;20764;-72
2022/09/14 01:21:21;;;;;;;4.47;2.10;;;;;;;;;;4922596;28;20237;-73
2022/09/14 01:24:11;;;;;;;6.20;1.93;;;;;;;;;;4939087;28;20286;-72
2022/09/14 01:26:47;;;;;;;3.90;1.63;;;;;;;;;;4955323;28;20699;-73
2022/09/14 01:29:44;;;;;;;6.13;1.50;;;;;;;;;;4948342;28;20294;-72
2022/09/14 01:32:37;;;;;;;5.30;2.17;;;;;;;;;;4941542;28;20575;-72
2022/09/14 01:35:08;;;;;;;6.57;1.80;;;;;;;;;;4952335;28;20222;-72
2022/09/14 01:37:45;;;;;;;3.67;1.60;;;;;;;;;;4962560;28;20227;-72
2022/09/14 01:40:23;;;;;;;2.87;1.60;;;;;;;;;;4906571;28;20235;-72
2022/09/14 01:42:57;;;;;;;5.00;1.60;;;;;;;;;;4930014;28;20270;-71
2022/09/14 01:45:27;;;;;;;1.67;1.47;;;;;;;;;;4926794;28;20676;-72
2022/09/14 01:47:54;;;;;;;2.60;1.43;;;;;;;;;;4941199;28;20231;-73
2022/09/14 01:50:42;;;;;;;4.67;1.57;;;;;;;;;;4957056;28;20649;-72
2022/09/14 01:53:19;;;;;;;4.33;1.90;;;;;;;;;;4951137;28;20238;-72
2022/09/14 01:55:55;;;;;;;4.10;1.80;;;;;;;;;;4912788;28;20223;-71
2022/09/14 01:58:33;;;;;;;2.83;1.57;;;;;;;;;;4939027;28;20230;-72
2022/09/14 02:01:00;;;;;;;2.93;1.60;;;;;;;;;;4956243;28;20275;-72
2022/09/14 02:03:29;;;;;;;4.67;1.77;;;;;;;;;;4921167;28;20647;-72
2022/09/14 02:06:26;;;;;;;5.67;1.60;;;;;;;;;;4936640;28;20223;-72
2022/09/14 02:08:54;;;;;;;3.63;1.63;;;;;;;;;;4950373;28;20219;-73
2022/09/14 02:11:21;;;;;;;4.33;1.83;;;;;;;;;;4923225;28;20214;-72
2022/09/14 02:13:47;;;;;;;2.80;1.80;;;;;;;;;;4931925;28;20355;-72
2022/09/14 02:16:13;;;;;;;2.97;1.40;;;;;;;;;;4954764;28;20223;-72
2022/09/14 02:18:38;;;;;;;2.80;1.60;;;;;;;;;;4922358;28;20251;-72
2022/09/14 02:21:06;;;;;;;4.83;1.87;;;;;;;;;;4951705;28;20225;-71
2022/09/14 02:23:34;;;;;;;3.27;1.60;;;;;;;;;;4906225;28;20219;-72
2022/09/14 02:25:59;;;;;;;3.80;1.60;;;;;;;;;;4937759;28;20652;-72
2022/09/14 02:28:25;;;;;;;3.57;1.63;;;;;;;;;;4935408;28;20231;-72
2022/09/14 02:31:12;;;;;;;4.17;2.10;;;;;;;;;;4937956;28;20230;-71
2022/09/14 02:33:47;;;;;;;5.37;1.97;;;;;;;;;;4936620;28;20308;-73
2022/09/14 02:36:21;;;;;;;2.93;1.70;;;;;;;;;;4925726;28;20298;-71
2022/09/14 02:39:00;;;;;;;6.77;2.20;;;;;;;;;;4958867;28;20307;-72
2022/09/14 02:41:38;;;;;;;3.60;1.80;;;;;;;;;;4938366;28;21015;-72
2022/09/14 02:44:26;;;;;;;5.10;1.90;;;;;;;;;;4959306;28;20223;-73
2022/09/14 02:47:30;;;;;;;2.73;1.70;;;;;;;;;;4959149;28;20656;-72
2022/09/14 02:50:12;;;;;;;3.13;1.40;;;;;;;;;;4917466;28;20245;-73
2022/09/14 02:52:47;;;;;;;3.17;1.77;;;;;;;;;;4958006;28;20250;-72
2022/09/14 02:55:15;;;;;;;3.90;2.17;;;;;;;;;;4938955;28;20307;-72
2022/09/14 02:58:12;;;;;;;3.53;2.20;;;;;;;;;;4915099;28;20230;-72
2022/09/14 03:00:45;;;;;;;6.33;2.03;;;;;;;;;;4956123;28;20693;-72
2022/09/14 03:03:12;;;;;;;4.70;1.90;;;;;;;;;;4936051;28;20222;-72
2022/09/14 03:05:37;;;;;;;3.87;1.57;;;;;;;;;;4937855;28;20258;-73
2022/09/14 03:08:03;;;;;;;3.23;1.60;;;;;;;;;;4923901;28;20843;-72
2022/09/14 03:10:31;;;;;;;3.83;1.70;;;;;;;;;;4924226;28;20219;-73
2022/09/14 03:13:00;;;;;;;2.83;1.57;;;;;;;;;;4911120;28;20227;-72
2022/09/14 03:15:28;;;;;;;2.83;1.70;;;;;;;;;;4938294;28;20241;-73
2022/09/14 03:17:58;;;;;;;5.60;1.90;;;;;;;;;;4935098;28;20643;-72
2022/09/14 03:20:29;;;;;;;2.73;1.77;;;;;;;;;;4923650;28;20652;-72
2022/09/14 03:22:56;;;;;;;2.80;1.90;;;;;;;;;;4948292;28;20987;-72
2022/09/14 03:25:24;;;;;;;3.03;2.00;;;;;;;;;;4921790;28;20222;-73
2022/09/14 03:27:54;;;;;;;2.83;1.80;;;;;;;;;;4929191;28;20828;-72
2022/09/14 03:30:20;;;;;;;1.87;1.73;;;;;;;;;;4953806;28;20235;-72
2022/09/14 03:32:45;;;;;;;3.10;1.87;;;;;;;;;;4960420;28;20284;-72
2022/09/14 03:35:13;;;;;;;2.53;1.77;;;;;;;;;;4956256;28;20214;-72
2022/09/14 03:37:40;;;;;;;3.57;1.90;;;;;;;;;;4940969;28;20222;-72
2022/09/14 03:40:11;;;;;;;2.53;1.37;;;;;;;;;;4922557;28;20258;-70
2022/09/14 03:42:41;;;;;;;2.13;1.60;;;;;;;;;;4940368;28;20619;-73
2022/09/14 03:45:09;;;;;;;2.77;1.53;;;;;;;;;;4957446;28;20657;-73
2022/09/14 03:47:35;;;;;;;1.90;1.57;;;;;;;;;;4940000;28;20254;-73
2022/09/14 03:50:00;;;;;;;5.80;1.67;;;;;;;;;;4963754;28;20888;-73
2022/09/14 03:52:26;;;;;;;4.40;1.93;;;;;;;;;;4920121;28;20226;-73
2022/09/14 03:54:52;;;;;;;4.73;1.90;;;;;;;;;;4960371;28;20215;-73
2022/09/14 03:57:18;;;;;;;6.10;2.00;;;;;;;;;;4958275;28;20727;-73
2022/09/14 03:59:45;;;;;;;4.23;1.83;;;;;;;;;;4954646;28;20234;-72
2022/09/14 04:02:13;;;;;;;4.20;2.13;;;;;;;;;;4929127;28;20218;-72
2022/09/14 04:04:38;;;;;;;4.40;2.40;;;;;;;;;;4960028;28;20234;-73
2022/09/14 04:07:07;;;;;;;5.07;2.43;;;;;;;;;;4937450;28;20231;-73
2022/09/14 04:09:35;;;;;;;3.87;1.97;;;;;;;;;;4939421;28;20712;-72
2022/09/14 04:12:02;;;;;;;2.73;1.73;;;;;;;;;;4957379;28;20234;-73
2022/09/14 04:14:28;;;;;;;2.37;1.73;;;;;;;;;;4941826;28;20697;-72
2022/09/14 04:16:53;;;;;;;4.33;1.63;;;;;;;;;;4953429;28;20230;-73
2022/09/14 04:19:23;;;;;;;3.23;1.70;;;;;;;;;;4938655;28;20229;-73
2022/09/14 04:21:49;;;;;;;2.57;1.63;;;;;;;;;;4955389;28;20751;-74
2022/09/14 04:24:19;;;;;;;3.83;2.03;;;;;;;;;;4959720;28;20231;-72
2022/09/14 04:26:54;;;;;;;3.33;1.80;;;;;;;;;;4930846;28;20352;-73
2022/09/14 04:29:19;;;;;;;2.93;1.97;;;;;;;;;;4940324;28;20701;-72
2022/09/14 04:31:44;;;;;;;3.80;1.90;;;;;;;;;;4939559;28;20281;-72
2022/09/14 04:34:12;;;;;;;5.90;2.00;;;;;;;;;;4957707;28;20223;-72
2022/09/14 04:36:37;;;;;;;5.90;1.83;;;;;;;;;;4941693;28;20269;-73
2022/09/14 04:39:06;;;;;;;4.37;2.23;;;;;;;;;;4937234;28;20230;-72
2022/09/14 04:41:31;;;;;;;2.83;1.80;;;;;;;;;;4936867;28;20219;-71
2022/09/14 04:43:57;;;;;;;2.17;1.97;;;;;;;;;;4962039;28;20288;-71
2022/09/14 04:46:27;;;;;;;3.20;2.17;;;;;;;;;;4936204;28;20623;-73
2022/09/14 04:48:53;;;;;;;3.20;2.07;;;;;;;;;;4939412;28;20227;-72
2022/09/14 04:51:27;;;;;;;5.03;2.23;;;;;;;;;;4918178;28;20223;-73
2022/09/14 04:53:55;;;;;;;2.47;1.90;;;;;;;;;;4931284;28;20260;-72
2022/09/14 04:56:21;;;;;;;3.93;2.13;;;;;;;;;;4941694;28;20473;-72
2022/09/14 04:58:52;;;;;;;4.90;2.63;;;;;;;;;;4948954;28;20226;-72
2022/09/14 05:01:22;;;;;;;3.03;1.80;;;;;;;;;;4957540;28;20265;-71
2022/09/14 05:03:48;;;;;;;2.80;1.97;;;;;;;;;;4925091;28;21022;-71
2022/09/14 05:06:21;;;;;;;4.07;2.13;;;;;;;;;;4944142;28;20234;-71
2022/09/14 05:08:47;;;;;;;5.90;2.33;;;;;;;;;;4925578;28;20219;-70
2022/09/14 05:11:14;;;;;;;3.20;2.17;;;;;;;;;;4944581;28;20225;-71
2022/09/14 05:13:40;;;;;;;4.23;2.10;;;;;;;;;;4953390;28;20747;-71
2022/09/14 05:16:13;;;;;;;3.10;2.07;;;;;;;;;;4953503;28;20234;-72
2022/09/14 05:18:39;;;;;;;3.47;2.20;;;;;;;;;;4937054;28;20372;-70
2022/09/14 05:21:06;;;;;;;5.07;2.33;;;;;;;;;;4937569;28;20226;-72
2022/09/14 05:23:32;;;;;;;4.07;2.10;;;;;;;;;;4953673;28;20313;-73
2022/09/14 05:25:58;;;;;;;3.43;2.07;;;;;;;;;;4950707;28;20230;-71
2022/09/14 05:28:24;;;;;;;4.43;2.20;;;;;;;;;;4924473;28;20237;-72
2022/09/14 05:30:50;;;;;;;4.50;1.97;;;;;;;;;;4957833;28;20316;-72
2022/09/14 05:33:15;;;;;;;4.10;2.33;;;;;;;;;;4937075;28;20701;-71
2022/09/14 05:35:41;;;;;;;4.23;2.10;;;;;;;;;;4921149;28;20232;-73
2022/09/14 05:38:09;;;;;;;6.83;2.10;;;;;;;;;;4923441;28;20249;-73
2022/09/14 05:40:39;;;;;;;3.43;2.30;;;;;;;;;;4952541;28;20227;-73
2022/09/14 05:43:04;;;;;;;2.77;2.20;;;;;;;;;;4951343;28;20214;-72
2022/09/14 05:45:35;;;;;;;3.90;2.17;;;;;;;;;;4954676;28;20289;-73
2022/09/14 05:48:06;;;;;;;4.23;2.37;;;;;;;;;;4926128;28;20233;-72
2022/09/14 05:50:33;;;;;;;3.03;2.20;;;;;;;;;;4936779;28;20225;-71
2022/09/14 05:53:03;;;;;;;3.27;2.20;;;;;;;;;;4941052;28;20222;-72
2022/09/14 05:55:31;;;;;;;4.40;2.33;;;;;;;;;;4934142;28;20734;-71
2022/09/14 05:57:59;;;;;;;5.23;2.23;;;;;;;;;;4924687;28;20233;-71
2022/09/14 06:00:24;;;;;;;3.33;2.20;;;;;;;;;;4956903;28;20226;-72
2022/09/14 06:02:51;;;;;;;6.20;2.10;;;;;;;;;;4936162;28;20253;-75
2022/09/14 06:05:17;;;;;;;4.13;2.37;;;;;;;;;;4927912;28;20223;-71
2022/09/14 06:07:49;;;;;;;3.30;2.30;;;;;;;;;;4929757;28;20237;-72
2022/09/14 06:10:15;;;;;;;4.17;2.60;;;;;;;;;;4935992;28;20230;-71
2022/09/14 06:12:40;;;;;;;2.30;2.10;;;;;;;;;;4951255;28;20223;-73
2022/09/14 06:15:06;;;;;;;4.30;2.40;;;;;;;;;;4949833;28;20222;-72
2022/09/14 06:17:44;;;;;;;5.83;2.57;;;;;;;;;;4937907;28;20293;-72
2022/09/14 06:20:09;;;;;;;4.90;2.30;;;;;;;;;;4930537;28;20314;-71
2022/09/14 06:22:36;;;;;;;4.47;2.30;;;;;;;;;;4957546;28;20222;-72
2022/09/14 06:25:04;;;;;;;3.70;1.97;;;;;;;;;;4938912;28;20313;-73
2022/09/14 06:27:31;;;;;;;4.40;2.20;;;;;;;;;;4954461;28;20703;-73
2022/09/14 06:29:57;;;;;;;5.77;2.53;;;;;;;;;;4960585;28;20222;-72
2022/09/14 06:32:23;;;;;;;3.30;2.30;;;;;;;;;;4934603;28;20277;-72
2022/09/14 06:34:48;;;;;;;5.77;2.63;;;;;;;;;;4952372;28;20224;-73
2022/09/14 06:37:16;;;;;;;4.73;2.30;;;;;;;;;;4939209;28;20253;-72
2022/09/14 06:39:44;;;;;;;4.43;2.47;;;;;;;;;;4957722;28;20701;-72
2022/09/14 06:42:09;;;;;;;2.88;2.10;;;;;;;;;;4939990;28;20215;-73
2022/09/14 06:44:37;;;;;;;3.50;2.50;;;;;;;;;;4939357;28;20302;-74
2022/09/14 06:47:05;;;;;;;4.43;2.33;;;;;;;;;;4938883;28;20717;-75
2022/09/14 06:49:33;;;;;;;3.67;2.27;;;;;;;;;;4952453;28;20223;-74
2022/09/14 06:52:01;;;;;;;2.87;2.43;;;;;;;;;;4925202;28;20306;-74
2022/09/14 06:54:26;;;;;;;4.57;2.20;;;;;;;;;;4959586;28;20222;-74
2022/09/14 06:56:52;;;;;;;6.43;2.30;;;;;;;;;;4961116;28;20968;-74
2022/09/14 06:59:17;;;;;;;4.18;2.53;;;;;;;;;;4924199;28;20230;-74
2022/09/14 07:01:45;;;;;;;6.72;2.30;;;;;;;;;;4929338;28;20231;-74
2022/09/14 07:04:13;;;;;;;2.80;2.20;;;;;;;;;;4958247;28;20254;-74
2022/09/14 07:06:46;;;;;;;4.50;2.47;;;;;;;;;;4939253;28;20230;-74
2022/09/14 07:09:12;;;;;;;7.25;2.60;;;;;;;;;;4945503;28;20231;-74
2022/09/14 07:11:38;;;;;;;4.20;2.15;;;;;;;;;;4940301;28;20218;-74
2022/09/14 07:14:03;;;;;;;1.90;1.75;;;;;;;;;;4954113;28;20289;-74
2022/09/14 07:16:30;;;;;;;4.28;2.10;;;;;;;;;;4945629;28;20258;-73
2022/09/14 07:19:00;;;;;;;2.45;1.90;;;;;;;;;;4940044;28;20308;-73
2022/09/14 07:21:26;;;;;;;4.45;2.17;;;;;;;;;;4941363;28;20253;-73
2022/09/14 07:23:52;;;;;;;4.35;1.90;;;;;;;;;;4912944;28;20257;-73
2022/09/14 07:26:24;;;;;;;6.15;1.95;;;;;;;;;;4961251;28;21052;-73
2022/09/14 07:28:53;;;;;;;4.28;2.30;;;;;;;;;;4941868;28;20317;-74
2022/09/14 07:31:28;;;;;;;3.83;1.83;;;;;;;;;;4968849;28;20602;-74
2022/09/14 07:33:58;;;;;;;4.32;1.77;;;;;;;;;;4939638;28;20225;-75
2022/09/14 07:36:27;;;;;;;3.88;1.80;;;;;;;;;;4914947;28;20997;-74
2022/09/14 07:38:52;;;;;;;6.10;2.10;;;;;;;;;;4929480;28;20236;-74
2022/09/14 07:41:21;;;;;;;3.75;1.88;;;;;;;;;;4955309;28;20222;-74
2022/09/14 07:43:50;;;;;;;5.50;2.22;;;;;;;;;;4928193;28;20227;-73
2022/09/14 07:46:21;;;;;;;5.07;1.98;;;;;;;;;;4929578;28;20242;-73
2022/09/14 07:48:50;;;;;;;4.10;1.90;;;;;;;;;;4944853;28;20225;-74
2022/09/14 07:51:17;;;;;;;3.25;1.90;;;;;;;;;;4943828;28;20227;-73
2022/09/14 07:53:43;;;;;;;4.35;1.80;;;;;;;;;;4941000;28;20275;-73
2022/09/14 07:56:09;;;;;;;5.30;2.15;;;;;;;;;;4956389;28;20235;-74
2022/09/14 07:58:35;;;;;;;4.57;1.75;;;;;;;;;;4924495;28;20225;-73
2022/09/14 08:01:07;;;;;;;4.30;1.70;;;;;;;;;;4938419;28;20313;-74
2022/09/14 08:03:38;;;;;;;5.03;1.63;;;;;;;;;;4943027;28;20227;-73
2022/09/14 08:06:12;;;;;;;5.75;2.00;;;;;;;;;;4955434;28;20225;-73
2022/09/14 08:08:43;;;;;;;4.47;1.52;;;;;;;;;;4949433;28;20600;-74
2022/09/14 08:11:18;;;;;;;2.40;1.60;;;;;;;;;;4924607;28;20697;-74
2022/09/14 08:13:48;;;;;;;3.30;1.67;;;;;;;;;;4956455;28;20780;-74
2022/09/14 08:16:13;;;;;;;5.63;1.50;;;;;;;;;;4957575;28;20231;-74
2022/09/14 08:18:38;;;;;;;3.42;1.50;;;;;;;;;;4957520;28;20278;-73
2022/09/14 08:21:13;;;;;;;3.58;1.55;;;;;;;;;;4941893;28;20273;-75
2022/09/14 08:23:38;;;;;;;5.05;1.80;;;;;;;;;;4941141;28;20777;-74
2022/09/14 08:26:05;;;;;;;3.85;2.03;;;;;;;;;;4937663;28;20229;-75
2022/09/14 08:28:32;;;;;;;5.53;2.38;;;;;;;;;;4955427;28;20240;-71
2022/09/14 08:31:07;;;;;;;4.22;2.10;;;;;;;;;;4956293;28;20230;-74
2022/09/14 08:33:37;;;;;;;5.60;2.03;;;;;;;;;;4938327;28;20229;-74
2022/09/14 08:36:03;;;;;;;2.75;1.77;;;;;;;;;;4945808;28;20230;-74
2022/09/14 08:38:29;;;;;;;4.75;2.10;;;;;;;;;;4951907;28;20731;-74
2022/09/14 08:40:55;;;;;;;5.05;1.52;;;;;;;;;;4929400;28;20225;-74
2022/09/14 08:43:20;;;;;;;4.40;1.52;;;;;;;;;;4937808;28;20210;-73
2022/09/14 08:45:46;;;;;;;4.63;1.90;;;;;;;;;;4947492;28;20606;-74
2022/09/14 08:48:26;;;;;;;7.20;1.77;;;;;;;;;;4955035;28;20257;-74
2022/09/14 08:50:52;;;;;;;2.63;1.35;;;;;;;;;;4956694;28;20226;-73
2022/09/14 08:53:22;;;;;;;3.85;1.77;;;;;;;;;;4936291;28;20226;-73
2022/09/14 08:55:49;;;;;;;5.28;1.50;;;;;;;;;;4972110;28;20609;-74
2022/09/14 08:58:42;;;;;;;4.25;1.75;;;;;;;;;;4933360;28;20223;-74
2022/09/14 09:01:07;;;;;;;5.13;1.58;;;;;;;;;;4954893;28;20234;-74
2022/09/14 09:03:48;;;;;;;4.35;1.70;;;;;;;;;;4954061;28;20222;-74
2022/09/14 09:06:36;;;;;;;5.65;1.75;;;;;;;;;;4955378;28;20763;-74
2022/09/14 09:09:30;;;;;;;5.65;2.00;;;;;;;;;;4942553;28;20238;-74
2022/09/14 09:11:59;;;;;;;3.70;1.52;;;;;;;;;;4947529;28;20678;-73
2022/09/14 09:14:32;;;;;;;6.20;2.05;;;;;;;;;;4941790;28;20237;-74
2022/09/14 09:17:04;;;;;;;12.25;2.03;;;;;;;;;;4957236;28;20688;-74
2022/09/14 09:19:36;;;;;;;4.30;1.77;;;;;;;;;;4942198;28;20233;-74
2022/09/14 09:22:04;;;;;;;7.93;2.00;;;;;;;;;;4940244;28;20230;-74
2022/09/14 09:24:35;;;;;;;5.60;1.85;;;;;;;;;;4937812;28;20342;-74
2022/09/14 09:27:01;;;;;;;5.13;1.67;;;;;;;;;;4952004;28;20740;-74
2022/09/14 09:29:26;;;;;;;5.20;1.65;;;;;;;;;;4952081;28;20223;-73
2022/09/14 09:32:15;;;;;;;5.13;1.67;;;;;;;;;;4953802;28;20305;-72
2022/09/14 09:34:44;;;;;;;5.60;1.63;;;;;;;;;;4938321;28;20865;-74
2022/09/14 09:37:22;;;;;;;4.30;1.70;;;;;;;;;;4939117;28;20600;-75
2022/09/14 09:39:48;;;;;;;5.70;2.03;;;;;;;;;;4939396;28;20231;-74
2022/09/14 09:42:22;;;;;;;7.13;2.08;;;;;;;;;;4936492;28;20223;-74
2022/09/14 09:45:01;;;;;;;3.80;1.45;;;;;;;;;;4960292;28;20712;-74
2022/09/14 09:47:37;;;;;;;5.25;1.60;;;;;;;;;;4940463;28;20237;-73
2022/09/14 09:50:20;;;;;;;3.75;1.55;;;;;;;;;;4936434;28;20791;-74
2022/09/14 09:52:52;;;;;;;6.68;1.80;;;;;;;;;;4939497;28;20355;-74
2022/09/14 09:55:19;;;;;;;4.93;1.70;;;;;;;;;;4941547;28;20222;-74
2022/09/14 09:57:47;;;;;;;3.63;1.50;;;;;;;;;;4945637;28;20598;-74
2022/09/14 10:00:20;;;;;;;4.65;1.70;;;;;;;;;;4938955;28;20222;-72
2022/09/14 10:02:45;;;;;;;5.50;1.52;;;;;;;;;;4958954;28;20226;-74
2022/09/14 10:05:17;;;;;;;8.68;1.70;;;;;;;;;;4951040;28;20289;-75
2022/09/14 10:07:53;;;;;;;6.47;1.83;;;;;;;;;;4956981;28;20235;-74
2022/09/14 10:10:25;;;;;;;4.20;1.38;;;;;;;;;;4956631;28;20746;-75
2022/09/14 10:12:55;;;;;;;6.80;1.80;;;;;;;;;;4941124;28;20281;-74
2022/09/14 10:15:24;;;;;;;7.00;1.88;;;;;;;;;;4923912;28;20210;-74
2022/09/14 10:18:00;;;;;;;7.50;1.75;;;;;;;;;;4937517;28;20713;-74
2022/09/14 10:20:25;;;;;;;8.27;1.88;;;;;;;;;;4956118;28;20223;-77
2022/09/14 10:22:51;;;;;;;4.00;1.35;;;;;;;;;;4957358;28;20252;-74
2022/09/14 10:25:24;;;;;;;5.45;1.50;;;;;;;;;;4926856;28;20265;-74
2022/09/14 10:27:57;;;;;;;4.85;1.90;;;;;;;;;;4957015;28;20242;-74
2022/09/14 10:30:27;;;;;;;4.05;1.63;;;;;;;;;;4930488;28;20231;-73
2022/09/14 10:32:53;;;;;;;3.70;1.60;;;;;;;;;;4940125;28;20734;-74
2022/09/14 10:35:18;;;;;;;3.50;1.48;;;;;;;;;;4958777;28;20244;-73
2022/09/14 10:38:16;;;;;;;4.35;1.65;;;;;;;;;;4925604;28;20285;-73
2022/09/14 10:40:43;;;;;;;4.97;1.67;;;;;;;;;;4936219;28;20292;-73
2022/09/14 10:43:12;;;;;;;4.40;1.38;;;;;;;;;;4933908;28;20301;-74
2022/09/14 10:45:46;;;;;;;3.55;1.20;;;;;;;;;;4943220;28;20329;-78
2022/09/14 10:48:27;;;;;;;4.20;1.40;;;;;;;;;;4941985;28;20240;-73
2022/09/14 10:50:56;;;;;;;4.30;1.17;;;;;;;;;;4959204;28;20238;-74
2022/09/14 10:53:27;;;;;;;4.95;1.63;;;;;;;;;;4941414;28;21067;-73
2022/09/14 10:56:15;;;;;;;4.47;1.27;;;;;;;;;;4949180;28;20286;-73
2022/09/14 10:59:02;;;;;;;3.55;1.60;;;;;;;;;;4945742;28;20230;-73
2022/09/14 11:01:33;;;;;;;4.13;1.33;;;;;;;;;;4971632;28;20600;-74
2022/09/14 11:04:17;;;;;;;3.85;1.25;;;;;;;;;;4968914;28;20309;-73
2022/09/14 11:06:54;;;;;;;2.35;0.90;;;;;;;;;;4943484;28;20291;-72
2022/09/14 11:09:25;;;;;;;2.55;1.02;;;;;;;;;;4934028;28;20284;-74
2022/09/14 11:11:59;;;;;;;5.00;1.40;;;;;;;;;;4955723;28;20253;-73
2022/09/14 11:14:37;;;;;;;3.05;1.15;;;;;;;;;;4942482;28;20225;-73
2022/09/14 11:17:21;;;;;;;1.17;0.68;;;;;;;;;;4940325;28;20227;-75
2022/09/14 11:20:25;;;;;;;2.40;1.20;;;;;;;;;;4958441;28;20230;-72
2022/09/14 11:23:21;;;;;;;2.55;1.00;;;;;;;;;;4952154;28;20850;-73
2022/09/14 11:26:05;;;;;;;4.20;1.05;;;;;;;;;;4958293;28;20235;-74
2022/09/14 11:28:43;;;;;;;2.13;1.00;;;;;;;;;;4939612;28;20231;-74
2022/09/14 11:31:12;;;;;;;5.78;1.17;;;;;;;;;;4952887;28;21255;-74
2022/09/14 11:33:47;;;;;;;2.50;1.20;;;;;;;;;;4927086;28;20230;-73
2022/09/14 11:36:20;;;;;;;3.17;1.15;;;;;;;;;;4930110;28;20222;-73
2022/09/14 11:38:52;;;;;;;3.05;1.38;;;;;;;;;;4943398;28;20240;-72
2022/09/14 11:41:30;;;;;;;5.05;1.10;;;;;;;;;;4941488;28;20346;-73
2022/09/14 11:44:03;;;;;;;3.08;1.40;;;;;;;;;;4951468;28;20263;-73
2022/09/14 11:46:30;;;;;;;5.55;1.10;;;;;;;;;;4938145;29;20238;-72
2022/09/14 11:49:08;;;;;;;2.05;1.10;;;;;;;;;;4955494;28;20242;-73
2022/09/14 11:51:43;;;;;;;2.83;1.15;;;;;;;;;;4938128;28;20303;-73
2022/09/14 11:54:19;;;;;;;2.30;1.13;;;;;;;;;;4941354;28;20226;-73
2022/09/14 11:56:48;;;;;;;4.20;0.88;;;;;;;;;;4943598;28;20274;-74
2022/09/14 11:59:47;;;;;;;1.48;1.15;;;;;;;;;;4954155;28;20222;-74
2022/09/14 12:02:23;;;;;;;4.07;1.23;;;;;;;;;;4956903;28;20225;-74
2022/09/14 12:05:08;;;;;;;2.85;1.10;;;;;;;;;;4960646;28;20875;-74
2022/09/14 12:07:44;;;;;;;2.80;1.20;;;;;;;;;;4946214;28;20761;-73
2022/09/14 12:10:13;;;;;;;1.77;1.00;;;;;;;;;;4970848;28;20700;-75
2022/09/14 12:12:39;;;;;;;3.15;1.20;;;;;;;;;;4957588;28;20370;-72
2022/09/14 12:15:13;;;;;;;4.78;1.58;;;;;;;;;;4956762;28;20630;-74
2022/09/14 12:17:40;;;;;;;3.33;1.27;;;;;;;;;;4938943;28;20235;-74
2022/09/14 12:20:30;;;;;;;4.22;1.20;;;;;;;;;;4953526;28;20352;-76
2022/09/14 12:23:20;;;;;;;4.50;1.30;;;;;;;;;;4954042;28;20262;-74
2022/09/14 12:25:58;;;;;;;3.83;1.00;;;;;;;;;;4956799;28;20230;-75
2022/09/14 12:28:28;;;;;;;2.05;0.98;;;;;;;;;;4917337;28;20229;-73
2022/09/14 12:30:53;;;;;;;4.28;1.05;;;;;;;;;;4939599;28;20245;-75
2022/09/14 12:33:31;;;;;;;3.38;1.20;;;;;;;;;;4951432;28;20223;-74
2022/09/14 12:36:12;;;;;;;4.97;1.30;;;;;;;;;;4955678;28;20325;-74
2022/09/14 12:38:53;;;;;;;2.83;0.90;;;;;;;;;;4940521;28;20262;-74
2022/09/14 12:41:28;;;;;;;5.85;1.10;;;;;;;;;;4973005;28;20222;-74
2022/09/14 12:43:53;;;;;;;2.03;1.10;;;;;;;;;;4957446;28;20654;-75
2022/09/14 12:46:19;;;;;;;2.50;1.27;;;;;;;;;;4940302;28;20245;-74
2022/09/14 12:48:44;;;;;;;1.92;0.80;;;;;;;;;;4955991;28;20234;-74
2022/09/14 12:51:27;;;;;;;3.60;1.20;;;;;;;;;;4957023;28;20763;-73
2022/09/14 12:53:59;;;;;;;2.90;0.80;;;;;;;;;;4932482;28;20234;-73
2022/09/14 12:56:34;;;;;;;2.92;0.95;;;;;;;;;;4949804;28;20700;-73
2022/09/14 12:59:09;;;;;;;3.70;1.10;;;;;;;;;;4957027;28;21256;-73
2022/09/14 13:01:56;;;;;;;1.50;0.88;;;;;;;;;;4961932;28;20221;-73
2022/09/14 13:04:28;;;;;;;3.70;1.20;;;;;;;;;;4959889;28;20697;-73
2022/09/14 13:06:55;;;;;;;3.90;1.20;;;;;;;;;;4955959;28;20697;-73
2022/09/14 13:09:28;;;;;;;2.50;1.10;;;;;;;;;;4956817;28;21065;-71
2022/09/14 13:12:06;;;;;;;2.85;1.10;;;;;;;;;;4955447;28;20253;-74
2022/09/14 13:14:55;;;;;;;2.03;1.00;;;;;;;;;;4941798;28;20425;-73
2022/09/14 13:17:23;;;;;;;2.00;0.90;;;;;;;;;;4955649;28;20233;-71
2022/09/14 13:20:03;;;;;;;3.35;1.20;;;;;;;;;;4954246;28;20227;-73
2022/09/14 13:22:30;;;;;;;3.47;1.27;;;;;;;;;;4953875;28;20357;-72
2022/09/14 13:24:56;;;;;;;2.40;1.10;;;;;;;;;;4939230;28;20258;-72
2022/09/14 13:27:22;;;;;;;2.03;1.08;;;;;;;;;;4957623;28;20839;-74
2022/09/14 13:29:47;;;;;;;3.75;1.10;;;;;;;;;;4955569;28;20239;-74
2022/09/14 13:32:17;;;;;;;4.05;1.10;;;;;;;;;;4941435;28;20679;-74
2022/09/14 13:34:47;;;;;;;2.72;1.08;;;;;;;;;;4941043;28;20226;-73
2022/09/14 13:37:15;;;;;;;3.67;0.95;;;;;;;;;;4956267;28;20218;-75
2022/09/14 13:39:41;;;;;;;1.95;1.05;;;;;;;;;;4941101;28;20225;-75
2022/09/14 13:42:07;;;;;;;2.00;1.25;;;;;;;;;;4923297;28;20218;-75
2022/09/14 13:44:40;;;;;;;2.90;1.20;;;;;;;;;;4936286;28;20656;-74
2022/09/14 13:47:06;;;;;;;2.83;1.10;;;;;;;;;;4925331;28;20708;-74
2022/09/14 13:49:32;;;;;;;2.72;1.00;;;;;;;;;;4919193;28;20222;-73
2022/09/14 13:52:21;;;;;;;3.30;1.52;;;;;;;;;;4937045;28;20306;-74
2022/09/14 13:54:53;;;;;;;2.03;1.00;;;;;;;;;;4956974;28;20238;-74
2022/09/14 13:57:25;;;;;;;1.77;1.08;;;;;;;;;;4958487;28;20234;-71
2022/09/14 14:00:12;;;;;;;2.83;1.13;;;;;;;;;;4937752;28;20237;-76
2022/09/14 14:02:43;;;;;;;2.53;1.25;;;;;;;;;;4953401;28;20284;-73
2022/09/14 14:05:26;;;;;;;1.58;1.00;;;;;;;;;;4937926;28;20237;-72
2022/09/14 14:07:52;;;;;;;3.70;1.20;;;;;;;;;;4938519;28;20233;-73
2022/09/14 14:10:27;;;;;;;4.65;1.08;;;;;;;;;;4918029;28;20223;-72
2022/09/14 14:12:53;;;;;;;3.60;1.00;;;;;;;;;;4943946;28;20219;-74
2022/09/14 14:15:19;;;;;;;3.38;1.20;;;;;;;;;;4927226;28;20222;-76
2022/09/14 14:17:47;;;;;;;1.95;1.10;;;;;;;;;;4946310;28;20218;-73
2022/09/14 14:20:29;;;;;;;3.17;1.30;;;;;;;;;;4952182;28;20235;-73
2022/09/14 14:22:56;;;;;;;3.75;1.20;;;;;;;;;;4940237;28;20222;-73
2022/09/14 14:26:05;;;;;;;2.97;1.25;;;;;;;;;;4954775;28;20230;-74
2022/09/14 14:28:31;;;;;;;4.00;1.27;;;;;;;;;;4903758;29;20231;-74
2022/09/14 14:30:59;;;;;;;3.85;1.45;;;;;;;;;;4945939;28;20584;-74
2022/09/14 14:33:28;;;;;;;3.65;1.52;;;;;;;;;;4938161;28;20224;-75
2022/09/14 14:35:55;;;;;;;1.88;1.00;;;;;;;;;;4955254;28;20221;-75
2022/09/14 14:38:23;;;;;;;4.35;1.13;;;;;;;;;;4931157;28;20230;-73
2022/09/14 14:40:53;;;;;;;2.08;1.35;;;;;;;;;;4944778;28;20232;-73
2022/09/14 14:43:23;;;;;;;3.47;1.15;;;;;;;;;;4952122;28;20740;-72
2022/09/14 14:45:55;;;;;;;5.60;1.50;;;;;;;;;;4956565;28;20226;-73
2022/09/14 14:48:20;;;;;;;3.58;1.30;;;;;;;;;;4941136;28;20239;-74
2022/09/14 14:50:46;;;;;;;5.72;1.30;;;;;;;;;;4965028;28;20766;-73
2022/09/14 14:53:12;;;;;;;2.85;1.02;;;;;;;;;;4944615;28;20272;-73
2022/09/14 14:55:40;;;;;;;3.60;1.10;;;;;;;;;;4955162;28;20829;-72
2022/09/14 14:58:12;;;;;;;1.63;0.80;;;;;;;;;;4925434;28;20660;-73
2022/09/14 15:00:38;;;;;;;2.53;1.17;;;;;;;;;;4925884;28;20324;-73
2022/09/14 15:03:03;;;;;;;2.13;1.08;;;;;;;;;;4931175;28;20227;-73
2022/09/14 15:05:29;;;;;;;2.50;1.05;;;;;;;;;;4945447;28;20233;-76
2022/09/14 15:07:58;;;;;;;3.00;1.20;;;;;;;;;;4961749;28;20296;-72